sensor_id;sensor_type;location;lat;lon;timestamp;temperature;humidity
15095;DHT22;7648;52.264;9.632;2023-03-16T00:01:51;1.30;99.90
15095;DHT22;7648;52.264;9.632;2023-03-16T00:05:54;1.30;99.90
15095;DHT22;7648;52.264;9.632;2023-03-16T00:09:55;1.20;99.90
15095;DHT22;7648;52.264;9.632;2023-03-16T00:13:57;1.20;99.90
15095;DHT22;7648;52.264;9.632;2023-03-16T00:18:01;1.20;99.90
15095;DHT22;7648;52.264;9.632;2023-03-16T00:22:03;1.30;99.90
15095;DHT22;7648;52.264;9.632;2023-03-16T00:26:07;1.30;99.90
15095;DHT22;7648;52.264;9.632;2023-03-16T00:30:10;1.40;99.90
15095;DHT22;7648;52.264;9.632;2023-03-16T00:34:14;1.30;99.90
15095;DHT22;7648;52.264;9.632;2023-03-16T00:38:17;1.30;99.90
15095;DHT22;7648;52.264;9.632;2023-03-16T00:42:19;1.40;99.90
15095;DHT22;7648;52.264;9.632;2023-03-16T00:46:23;1.30;99.90
15095;DHT22;7648;52.264;9.632;2023-03-16T00:50:27;1.40;99.90
15095;DHT22;7648;52.264;9.632;2023-03-16T00:54:30;1.30;99.90
15095;DHT22;7648;52.264;9.632;2023-03-16T00:58:33;1.30;99.90
15095;DHT22;7648;52.264;9.632;2023-03-16T01:02:36;1.40;99.90
15095;DHT22;7648;52.264;9.632;2023-03-16T01:06:39;1.30;99.90
15095;DHT22;7648;52.264;9.632;2023-03-16T01:10:42;1.30;99.90
15095;DHT22;7648;52.264;9.632;2023-03-16T01:14:46;1.30;99.90
15095;DHT22;7648;52.264;9.632;2023-03-16T01:18:48;1.30;99.90
15095;DHT22;7648;52.264;9.632;2023-03-16T01:22:53;1.20;99.90
15095;DHT22;7648;52.264;9.632;2023-03-16T01:26:55;1.20;99.90
15095;DHT22;7648;52.264;9.632;2023-03-16T01:30:59;1.10;99.90
15095;DHT22;7648;52.264;9.632;2023-03-16T01:35:02;1.00;99.90
15095;DHT22;7648;52.264;9.632;2023-03-16T01:39:06;1.00;99.90
15095;DHT22;7648;52.264;9.632;2023-03-16T01:43:11;1.00;99.90
15095;DHT22;7648;52.264;9.632;2023-03-16T01:47:15;0.90;99.90
15095;DHT22;7648;52.264;9.632;2023-03-16T01:51:22;0.90;99.90
15095;DHT22;7648;52.264;9.632;2023-03-16T01:55:25;0.90;99.90
15095;DHT22;7648;52.264;9.632;2023-03-16T01:59:31;0.90;99.90
15095;DHT22;7648;52.264;9.632;2023-03-16T02:03:33;0.90;99.90
15095;DHT22;7648;52.264;9.632;2023-03-16T02:07:46;0.80;99.90
15095;DHT22;7648;52.264;9.632;2023-03-16T02:11:50;0.70;99.90
15095;DHT22;7648;52.264;9.632;2023-03-16T02:15:55;0.70;99.90
15095;DHT22;7648;52.264;9.632;2023-03-16T02:20:05;0.60;99.90
15095;DHT22;7648;52.264;9.632;2023-03-16T02:24:11;0.60;99.90
15095;DHT22;7648;52.264;9.632;2023-03-16T02:28:19;0.50;99.90
15095;DHT22;7648;52.264;9.632;2023-03-16T02:32:26;0.50;99.90
15095;DHT22;7648;52.264;9.632;2023-03-16T02:36:29;0.50;99.90
15095;DHT22;7648;52.264;9.632;2023-03-16T02:40:34;0.40;99.90
15095;DHT22;7648;52.264;9.632;2023-03-16T02:44:42;0.40;99.90
15095;DHT22;7648;52.264;9.632;2023-03-16T02:48:52;0.40;99.90
15095;DHT22;7648;52.264;9.632;2023-03-16T02:52:55;0.40;99.90
15095;DHT22;7648;52.264;9.632;2023-03-16T02:56:57;0.40;99.90
15095;DHT22;7648;52.264;9.632;2023-03-16T03:01:01;0.40;99.90
15095;DHT22;7648;52.264;9.632;2023-03-16T03:05:05;0.40;99.90
15095;DHT22;7648;52.264;9.632;2023-03-16T03:09:08;0.40;99.90
15095;DHT22;7648;52.264;9.632;2023-03-16T03:13:11;0.50;99.90
15095;DHT22;7648;52.264;9.632;2023-03-16T03:17:13;0.60;99.90
15095;DHT22;7648;52.264;9.632;2023-03-16T03:21:17;0.60;99.90
15095;DHT22;7648;52.264;9.632;2023-03-16T03:25:19;0.60;99.90
15095;DHT22;7648;52.264;9.632;2023-03-16T03:29:22;0.50;99.90
15095;DHT22;7648;52.264;9.632;2023-03-16T03:33:24;0.50;99.90
15095;DHT22;7648;52.264;9.632;2023-03-16T03:37:27;0.40;99.90
15095;DHT22;7648;52.264;9.632;2023-03-16T03:41:29;0.50;99.90
15095;DHT22;7648;52.264;9.632;2023-03-16T03:45:33;0.40;99.90
15095;DHT22;7648;52.264;9.632;2023-03-16T03:49:35;0.40;99.90
15095;DHT22;7648;52.264;9.632;2023-03-16T03:53:38;0.40;99.90
15095;DHT22;7648;52.264;9.632;2023-03-16T03:57:51;0.40;99.90
15095;DHT22;7648;52.264;9.632;2023-03-16T04:01:53;0.40;99.90
15095;DHT22;7648;52.264;9.632;2023-03-16T04:05:58;0.40;99.90
15095;DHT22;7648;52.264;9.632;2023-03-16T04:10:03;0.40;99.90
15095;DHT22;7648;52.264;9.632;2023-03-16T04:14:10;0.40;99.90
15095;DHT22;7648;52.264;9.632;2023-03-16T04:18:14;0.40;99.90
15095;DHT22;7648;52.264;9.632;2023-03-16T04:22:17;0.30;99.90
15095;DHT22;7648;52.264;9.632;2023-03-16T04:26:23;0.30;99.90
15095;DHT22;7648;52.264;9.632;2023-03-16T04:30:26;0.20;99.90
15095;DHT22;7648;52.264;9.632;2023-03-16T04:34:39;0.20;99.90
15095;DHT22;7648;52.264;9.632;2023-03-16T04:38:43;0.20;99.90
15095;DHT22;7648;52.264;9.632;2023-03-16T04:42:47;0.20;99.90
15095;DHT22;7648;52.264;9.632;2023-03-16T04:46:53;0.20;99.90
15095;DHT22;7648;52.264;9.632;2023-03-16T04:50:57;0.20;99.90
15095;DHT22;7648;52.264;9.632;2023-03-16T04:55:05;0.20;99.90
15095;DHT22;7648;52.264;9.632;2023-03-16T04:59:10;0.20;99.90
15095;DHT22;7648;52.264;9.632;2023-03-16T05:03:21;0.20;99.90
15095;DHT22;7648;52.264;9.632;2023-03-16T05:07:23;0.20;99.90
15095;DHT22;7648;52.264;9.632;2023-03-16T05:11:28;0.20;99.90
15095;DHT22;7648;52.264;9.632;2023-03-16T05:15:35;0.10;99.90
15095;DHT22;7648;52.264;9.632;2023-03-16T05:19:57;0.10;99.90
15095;DHT22;7648;52.264;9.632;2023-03-16T05:24:01;0.10;99.90
15095;DHT22;7648;52.264;9.632;2023-03-16T05:28:03;0.10;99.90
15095;DHT22;7648;52.264;9.632;2023-03-16T05:32:17;0.20;99.90
15095;DHT22;7648;52.264;9.632;2023-03-16T05:36:20;0.20;99.90
15095;DHT22;7648;52.264;9.632;2023-03-16T05:40:26;0.30;99.90
15095;DHT22;7648;52.264;9.632;2023-03-16T05:44:38;0.40;99.90
15095;DHT22;7648;52.264;9.632;2023-03-16T05:48:44;0.50;99.90
15095;DHT22;7648;52.264;9.632;2023-03-16T05:52:48;0.50;99.90
15095;DHT22;7648;52.264;9.632;2023-03-16T05:56:55;0.50;99.90
15095;DHT22;7648;52.264;9.632;2023-03-16T06:00:58;0.60;99.90
15095;DHT22;7648;52.264;9.632;2023-03-16T06:05:06;0.60;99.90
15095;DHT22;7648;52.264;9.632;2023-03-16T06:09:09;0.70;99.90
15095;DHT22;7648;52.264;9.632;2023-03-16T06:13:12;0.80;99.90
15095;DHT22;7648;52.264;9.632;2023-03-16T06:17:14;0.80;99.90
15095;DHT22;7648;52.264;9.632;2023-03-16T06:21:18;0.80;99.90
15095;DHT22;7648;52.264;9.632;2023-03-16T06:25:23;0.90;99.90
15095;DHT22;7648;52.264;9.632;2023-03-16T06:29:26;1.10;99.90
15095;DHT22;7648;52.264;9.632;2023-03-16T06:33:29;1.20;99.90
15095;DHT22;7648;52.264;9.632;2023-03-16T06:37:33;1.40;99.90
15095;DHT22;7648;52.264;9.632;2023-03-16T06:41:40;1.40;99.90
15095;DHT22;7648;52.264;9.632;2023-03-16T06:45:45;1.40;99.90
15095;DHT22;7648;52.264;9.632;2023-03-16T06:49:48;1.50;99.90
15095;DHT22;7648;52.264;9.632;2023-03-16T06:53:56;1.60;99.90
15095;DHT22;7648;52.264;9.632;2023-03-16T06:57:58;1.60;99.90
15095;DHT22;7648;52.264;9.632;2023-03-16T07:02:01;1.70;99.90
15095;DHT22;7648;52.264;9.632;2023-03-16T07:06:04;1.80;99.90
15095;DHT22;7648;52.264;9.632;2023-03-16T07:10:09;1.80;99.90
15095;DHT22;7648;52.264;9.632;2023-03-16T07:14:12;1.90;99.90
15095;DHT22;7648;52.264;9.632;2023-03-16T07:18:15;1.90;99.90
15095;DHT22;7648;52.264;9.632;2023-03-16T07:22:17;2.00;99.90
15095;DHT22;7648;52.264;9.632;2023-03-16T07:26:21;2.10;99.90
15095;DHT22;7648;52.264;9.632;2023-03-16T07:30:30;2.10;99.90
15095;DHT22;7648;52.264;9.632;2023-03-16T07:34:32;2.20;99.90
15095;DHT22;7648;52.264;9.632;2023-03-16T07:38:35;2.30;99.90
15095;DHT22;7648;52.264;9.632;2023-03-16T07:42:39;2.30;99.90
15095;DHT22;7648;52.264;9.632;2023-03-16T07:46:43;2.50;99.90
15095;DHT22;7648;52.264;9.632;2023-03-16T07:50:46;2.60;99.90
15095;DHT22;7648;52.264;9.632;2023-03-16T07:54:48;2.70;99.90
15095;DHT22;7648;52.264;9.632;2023-03-16T07:58:53;2.80;99.90
15095;DHT22;7648;52.264;9.632;2023-03-16T08:02:56;2.80;99.90
15095;DHT22;7648;52.264;9.632;2023-03-16T08:06:58;2.90;99.90
15095;DHT22;7648;52.264;9.632;2023-03-16T08:11:12;2.90;99.90
15095;DHT22;7648;52.264;9.632;2023-03-16T08:15:28;3.00;99.90
15095;DHT22;7648;52.264;9.632;2023-03-16T08:19:38;3.20;99.90
15095;DHT22;7648;52.264;9.632;2023-03-16T08:23:43;3.30;99.90
15095;DHT22;7648;52.264;9.632;2023-03-16T08:27:49;3.40;99.90
15095;DHT22;7648;52.264;9.632;2023-03-16T08:31:54;3.60;99.90
15095;DHT22;7648;52.264;9.632;2023-03-16T08:36:04;3.70;99.90
15095;DHT22;7648;52.264;9.632;2023-03-16T08:40:08;3.90;99.90
15095;DHT22;7648;52.264;9.632;2023-03-16T08:44:14;4.00;99.90
15095;DHT22;7648;52.264;9.632;2023-03-16T08:48:18;4.20;99.90
15095;DHT22;7648;52.264;9.632;2023-03-16T08:52:23;4.30;99.90
15095;DHT22;7648;52.264;9.632;2023-03-16T08:56:25;4.40;99.90
15095;DHT22;7648;52.264;9.632;2023-03-16T09:00:28;4.50;99.90
15095;DHT22;7648;52.264;9.632;2023-03-16T09:04:31;4.60;99.90
15095;DHT22;7648;52.264;9.632;2023-03-16T09:08:33;4.80;99.90
15095;DHT22;7648;52.264;9.632;2023-03-16T09:12:36;4.80;99.90
15095;DHT22;7648;52.264;9.632;2023-03-16T09:16:38;4.90;99.90
15095;DHT22;7648;52.264;9.632;2023-03-16T09:20:41;5.00;99.90
15095;DHT22;7648;52.264;9.632;2023-03-16T09:24:43;5.20;99.90
15095;DHT22;7648;52.264;9.632;2023-03-16T09:28:45;5.40;99.90
15095;DHT22;7648;52.264;9.632;2023-03-16T09:32:48;5.70;99.90
15095;DHT22;7648;52.264;9.632;2023-03-16T09:36:51;5.80;99.90
15095;DHT22;7648;52.264;9.632;2023-03-16T09:40:56;6.00;99.90
15095;DHT22;7648;52.264;9.632;2023-03-16T09:45:08;6.20;99.90
15095;DHT22;7648;52.264;9.632;2023-03-16T09:49:16;6.30;99.90
15095;DHT22;7648;52.264;9.632;2023-03-16T09:53:25;6.50;99.90
15095;DHT22;7648;52.264;9.632;2023-03-16T09:57:30;6.60;99.90
15095;DHT22;7648;52.264;9.632;2023-03-16T10:01:42;6.70;99.90
15095;DHT22;7648;52.264;9.632;2023-03-16T10:05:53;6.80;99.90
15095;DHT22;7648;52.264;9.632;2023-03-16T10:10:04;6.90;99.90
15095;DHT22;7648;52.264;9.632;2023-03-16T10:14:11;6.90;99.90
15095;DHT22;7648;52.264;9.632;2023-03-16T10:18:19;7.00;99.90
15095;DHT22;7648;52.264;9.632;2023-03-16T10:22:25;7.20;99.90
15095;DHT22;7648;52.264;9.632;2023-03-16T10:26:34;7.20;99.90
15095;DHT22;7648;52.264;9.632;2023-03-16T10:30:37;7.30;99.90
15095;DHT22;7648;52.264;9.632;2023-03-16T10:34:41;7.50;99.90
15095;DHT22;7648;52.264;9.632;2023-03-16T10:38:46;7.60;99.90
15095;DHT22;7648;52.264;9.632;2023-03-16T10:42:50;7.70;99.90
15095;DHT22;7648;52.264;9.632;2023-03-16T10:46:59;7.90;99.90
15095;DHT22;7648;52.264;9.632;2023-03-16T10:51:04;8.00;99.90
15095;DHT22;7648;52.264;9.632;2023-03-16T10:55:10;8.00;99.90
15095;DHT22;7648;52.264;9.632;2023-03-16T10:59:26;8.10;99.90
15095;DHT22;7648;52.264;9.632;2023-03-16T11:03:31;8.20;99.90
15095;DHT22;7648;52.264;9.632;2023-03-16T11:07:38;8.30;99.90
15095;DHT22;7648;52.264;9.632;2023-03-16T11:11:48;8.30;99.90
15095;DHT22;7648;52.264;9.632;2023-03-16T11:15:54;8.40;99.90
15095;DHT22;7648;52.264;9.632;2023-03-16T11:19:59;8.60;99.90
15095;DHT22;7648;52.264;9.632;2023-03-16T11:24:13;8.80;99.90
15095;DHT22;7648;52.264;9.632;2023-03-16T11:28:33;8.70;99.90
15095;DHT22;7648;52.264;9.632;2023-03-16T11:32:37;8.70;99.90
15095;DHT22;7648;52.264;9.632;2023-03-16T11:36:46;8.80;99.90
15095;DHT22;7648;52.264;9.632;2023-03-16T11:40:56;8.90;99.90
15095;DHT22;7648;52.264;9.632;2023-03-16T11:45:05;9.20;99.90
15095;DHT22;7648;52.264;9.632;2023-03-16T11:49:33;9.70;99.90
15095;DHT22;7648;52.264;9.632;2023-03-16T11:53:48;10.20;99.90
15095;DHT22;7648;52.264;9.632;2023-03-16T11:58:00;10.60;99.90
15095;DHT22;7648;52.264;9.632;2023-03-16T12:02:19;10.40;99.90
15095;DHT22;7648;52.264;9.632;2023-03-16T12:06:37;10.40;99.90
15095;DHT22;7648;52.264;9.632;2023-03-16T12:10:46;10.60;99.90
15095;DHT22;7648;52.264;9.632;2023-03-16T12:14:54;10.60;99.90
15095;DHT22;7648;52.264;9.632;2023-03-16T12:19:06;10.90;99.90
15095;DHT22;7648;52.264;9.632;2023-03-16T12:23:15;11.20;99.90
15095;DHT22;7648;52.264;9.632;2023-03-16T12:27:25;11.50;99.90
15095;DHT22;7648;52.264;9.632;2023-03-16T12:31:35;11.70;99.90
15095;DHT22;7648;52.264;9.632;2023-03-16T12:35:44;11.70;99.90
15095;DHT22;7648;52.264;9.632;2023-03-16T12:40:11;11.70;99.90
15095;DHT22;7648;52.264;9.632;2023-03-16T12:44:22;11.60;99.90
15095;DHT22;7648;52.264;9.632;2023-03-16T12:48:30;11.50;99.90
15095;DHT22;7648;52.264;9.632;2023-03-16T12:52:41;11.20;99.90
15095;DHT22;7648;52.264;9.632;2023-03-16T12:56:46;10.80;99.90
15095;DHT22;7648;52.264;9.632;2023-03-16T13:00:55;10.70;99.90
15095;DHT22;7648;52.264;9.632;2023-03-16T13:05:00;10.60;99.90
15095;DHT22;7648;52.264;9.632;2023-03-16T13:09:04;10.60;99.90
15095;DHT22;7648;52.264;9.632;2023-03-16T13:13:09;10.60;99.90
15095;DHT22;7648;52.264;9.632;2023-03-16T13:17:26;10.50;99.90
15095;DHT22;7648;52.264;9.632;2023-03-16T13:21:39;10.30;99.90
15095;DHT22;7648;52.264;9.632;2023-03-16T13:25:43;10.30;99.90
15095;DHT22;7648;52.264;9.632;2023-03-16T13:29:54;10.20;99.90
15095;DHT22;7648;52.264;9.632;2023-03-16T13:33:56;10.30;99.90
15095;DHT22;7648;52.264;9.632;2023-03-16T13:38:02;10.40;99.90
15095;DHT22;7648;52.264;9.632;2023-03-16T13:42:15;10.50;99.90
15095;DHT22;7648;52.264;9.632;2023-03-16T13:46:21;10.70;99.90
15095;DHT22;7648;52.264;9.632;2023-03-16T13:50:31;10.80;99.90
15095;DHT22;7648;52.264;9.632;2023-03-16T13:54:39;10.80;99.90
15095;DHT22;7648;52.264;9.632;2023-03-16T13:58:43;10.60;99.90
15095;DHT22;7648;52.264;9.632;2023-03-16T14:02:51;10.50;99.90
15095;DHT22;7648;52.264;9.632;2023-03-16T14:06:55;10.40;99.90
15095;DHT22;7648;52.264;9.632;2023-03-16T14:10:57;10.30;99.90
15095;DHT22;7648;52.264;9.632;2023-03-16T14:14:59;10.10;99.90
15095;DHT22;7648;52.264;9.632;2023-03-16T14:19:15;10.00;99.90
15095;DHT22;7648;52.264;9.632;2023-03-16T14:23:21;9.80;99.90
15095;DHT22;7648;52.264;9.632;2023-03-16T14:27:30;9.70;99.90
15095;DHT22;7648;52.264;9.632;2023-03-16T14:31:34;9.50;99.90
15095;DHT22;7648;52.264;9.632;2023-03-16T14:35:41;9.40;99.90
15095;DHT22;7648;52.264;9.632;2023-03-16T14:39:43;9.30;99.90
15095;DHT22;7648;52.264;9.632;2023-03-16T14:43:47;9.30;99.90
15095;DHT22;7648;52.264;9.632;2023-03-16T14:47:50;9.30;99.90
15095;DHT22;7648;52.264;9.632;2023-03-16T14:51:58;9.30;99.90
15095;DHT22;7648;52.264;9.632;2023-03-16T14:56:01;9.30;99.90
15095;DHT22;7648;52.264;9.632;2023-03-16T15:00:04;9.30;99.90
15095;DHT22;7648;52.264;9.632;2023-03-16T15:04:12;9.20;99.90
15095;DHT22;7648;52.264;9.632;2023-03-16T15:08:18;9.20;99.90
15095;DHT22;7648;52.264;9.632;2023-03-16T15:12:22;9.10;99.90
15095;DHT22;7648;52.264;9.632;2023-03-16T15:16:25;9.10;99.90
15095;DHT22;7648;52.264;9.632;2023-03-16T15:20:29;9.10;99.90
15095;DHT22;7648;52.264;9.632;2023-03-16T15:24:34;9.10;99.90
15095;DHT22;7648;52.264;9.632;2023-03-16T15:28:36;9.10;99.90
15095;DHT22;7648;52.264;9.632;2023-03-16T15:32:38;9.10;99.90
15095;DHT22;7648;52.264;9.632;2023-03-16T15:36:39;9.10;99.90
15095;DHT22;7648;52.264;9.632;2023-03-16T15:40:43;9.00;99.90
15095;DHT22;7648;52.264;9.632;2023-03-16T15:44:47;8.90;99.90
15095;DHT22;7648;52.264;9.632;2023-03-16T15:48:49;8.90;99.90
15095;DHT22;7648;52.264;9.632;2023-03-16T15:52:53;8.80;99.90
15095;DHT22;7648;52.264;9.632;2023-03-16T15:56:57;8.80;99.90
15095;DHT22;7648;52.264;9.632;2023-03-16T16:01:00;8.80;99.90
15095;DHT22;7648;52.264;9.632;2023-03-16T16:05:03;8.80;99.90
15095;DHT22;7648;52.264;9.632;2023-03-16T16:09:05;8.70;99.90
15095;DHT22;7648;52.264;9.632;2023-03-16T16:13:12;8.70;99.90
15095;DHT22;7648;52.264;9.632;2023-03-16T16:17:15;8.70;99.90
15095;DHT22;7648;52.264;9.632;2023-03-16T16:21:26;8.60;99.90
15095;DHT22;7648;52.264;9.632;2023-03-16T16:25:33;8.60;99.90
15095;DHT22;7648;52.264;9.632;2023-03-16T16:29:38;8.50;99.90
15095;DHT22;7648;52.264;9.632;2023-03-16T16:33:40;8.40;99.90
15095;DHT22;7648;52.264;9.632;2023-03-16T16:37:42;8.30;99.90
15095;DHT22;7648;52.264;9.632;2023-03-16T16:41:44;8.20;99.90
15095;DHT22;7648;52.264;9.632;2023-03-16T16:45:48;8.20;99.90
15095;DHT22;7648;52.264;9.632;2023-03-16T16:49:51;8.20;99.90
15095;DHT22;7648;52.264;9.632;2023-03-16T16:53:54;8.20;99.90
15095;DHT22;7648;52.264;9.632;2023-03-16T16:57:56;8.10;99.90
15095;DHT22;7648;52.264;9.632;2023-03-16T17:02:00;8.00;99.90
15095;DHT22;7648;52.264;9.632;2023-03-16T17:06:03;8.00;99.90
15095;DHT22;7648;52.264;9.632;2023-03-16T17:10:06;7.90;99.90
15095;DHT22;7648;52.264;9.632;2023-03-16T17:14:10;7.80;99.90
15095;DHT22;7648;52.264;9.632;2023-03-16T17:18:16;7.70;99.90
15095;DHT22;7648;52.264;9.632;2023-03-16T17:22:21;7.60;99.90
15095;DHT22;7648;52.264;9.632;2023-03-16T17:26:26;7.60;99.90
15095;DHT22;7648;52.264;9.632;2023-03-16T17:30:29;7.50;99.90
15095;DHT22;7648;52.264;9.632;2023-03-16T17:34:33;7.40;99.90
15095;DHT22;7648;52.264;9.632;2023-03-16T17:38:35;7.30;99.90
15095;DHT22;7648;52.264;9.632;2023-03-16T17:42:37;7.20;99.90
15095;DHT22;7648;52.264;9.632;2023-03-16T17:46:39;7.10;99.90
15095;DHT22;7648;52.264;9.632;2023-03-16T17:50:43;7.00;99.90
15095;DHT22;7648;52.264;9.632;2023-03-16T17:54:48;7.00;99.90
15095;DHT22;7648;52.264;9.632;2023-03-16T17:58:52;6.90;99.90
15095;DHT22;7648;52.264;9.632;2023-03-16T18:02:58;6.90;99.90
15095;DHT22;7648;52.264;9.632;2023-03-16T18:07:02;6.80;99.90
15095;DHT22;7648;52.264;9.632;2023-03-16T18:11:08;6.80;99.90
15095;DHT22;7648;52.264;9.632;2023-03-16T18:15:14;6.80;99.90
15095;DHT22;7648;52.264;9.632;2023-03-16T18:19:21;6.80;99.90
15095;DHT22;7648;52.264;9.632;2023-03-16T18:23:28;6.70;99.90
15095;DHT22;7648;52.264;9.632;2023-03-16T18:27:30;6.80;99.90
15095;DHT22;7648;52.264;9.632;2023-03-16T18:31:32;6.70;99.90
15095;DHT22;7648;52.264;9.632;2023-03-16T18:35:34;6.80;99.90
15095;DHT22;7648;52.264;9.632;2023-03-16T18:39:38;6.70;99.90
15095;DHT22;7648;52.264;9.632;2023-03-16T18:43:40;6.80;99.90
15095;DHT22;7648;52.264;9.632;2023-03-16T18:47:47;6.80;99.90
15095;DHT22;7648;52.264;9.632;2023-03-16T18:51:52;6.80;99.90
15095;DHT22;7648;52.264;9.632;2023-03-16T18:55:56;6.90;99.90
15095;DHT22;7648;52.264;9.632;2023-03-16T18:59:58;6.80;99.90
15095;DHT22;7648;52.264;9.632;2023-03-16T19:04:00;6.80;99.90
15095;DHT22;7648;52.264;9.632;2023-03-16T19:08:03;6.80;99.90
15095;DHT22;7648;52.264;9.632;2023-03-16T19:12:14;6.70;99.90
15095;DHT22;7648;52.264;9.632;2023-03-16T19:16:17;6.70;99.90
15095;DHT22;7648;52.264;9.632;2023-03-16T19:20:21;6.60;99.90
15095;DHT22;7648;52.264;9.632;2023-03-16T19:24:26;6.60;99.90
15095;DHT22;7648;52.264;9.632;2023-03-16T19:28:31;6.50;99.90
15095;DHT22;7648;52.264;9.632;2023-03-16T19:32:36;6.50;99.90
15095;DHT22;7648;52.264;9.632;2023-03-16T19:36:38;6.50;99.90
15095;DHT22;7648;52.264;9.632;2023-03-16T19:40:40;6.40;99.90
15095;DHT22;7648;52.264;9.632;2023-03-16T19:44:46;6.40;99.90
15095;DHT22;7648;52.264;9.632;2023-03-16T19:48:48;6.40;99.90
15095;DHT22;7648;52.264;9.632;2023-03-16T19:52:50;6.40;99.90
15095;DHT22;7648;52.264;9.632;2023-03-16T19:56:53;6.40;99.90
15095;DHT22;7648;52.264;9.632;2023-03-16T20:00:57;6.40;99.90
15095;DHT22;7648;52.264;9.632;2023-03-16T20:05:00;6.50;99.90
15095;DHT22;7648;52.264;9.632;2023-03-16T20:09:03;6.50;99.90
15095;DHT22;7648;52.264;9.632;2023-03-16T20:13:05;6.50;99.90
15095;DHT22;7648;52.264;9.632;2023-03-16T20:17:19;6.60;99.90
15095;DHT22;7648;52.264;9.632;2023-03-16T20:21:21;6.60;99.90
15095;DHT22;7648;52.264;9.632;2023-03-16T20:25:26;6.60;99.90
15095;DHT22;7648;52.264;9.632;2023-03-16T20:29:30;6.60;99.90
15095;DHT22;7648;52.264;9.632;2023-03-16T20:33:34;6.70;99.90
15095;DHT22;7648;52.264;9.632;2023-03-16T20:37:36;6.70;99.90
15095;DHT22;7648;52.264;9.632;2023-03-16T20:41:38;6.70;99.90
15095;DHT22;7648;52.264;9.632;2023-03-16T20:45:40;6.70;99.90
15095;DHT22;7648;52.264;9.632;2023-03-16T20:49:44;6.70;99.90
15095;DHT22;7648;52.264;9.632;2023-03-16T20:53:47;6.70;99.90
15095;DHT22;7648;52.264;9.632;2023-03-16T20:57:50;6.70;99.90
15095;DHT22;7648;52.264;9.632;2023-03-16T21:01:53;6.70;99.90
15095;DHT22;7648;52.264;9.632;2023-03-16T21:05:57;6.60;99.90
15095;DHT22;7648;52.264;9.632;2023-03-16T21:09:59;6.60;99.90
15095;DHT22;7648;52.264;9.632;2023-03-16T21:14:01;6.60;99.90
15095;DHT22;7648;52.264;9.632;2023-03-16T21:18:05;6.50;99.90
15095;DHT22;7648;52.264;9.632;2023-03-16T21:22:19;6.50;99.90
15095;DHT22;7648;52.264;9.632;2023-03-16T21:26:30;6.60;99.90
15095;DHT22;7648;52.264;9.632;2023-03-16T21:30:36;6.50;99.90
15095;DHT22;7648;52.264;9.632;2023-03-16T21:34:38;6.50;99.90
15095;DHT22;7648;52.264;9.632;2023-03-16T21:38:42;6.60;99.90
15095;DHT22;7648;52.264;9.632;2023-03-16T21:42:45;6.50;99.90
15095;DHT22;7648;52.264;9.632;2023-03-16T21:46:47;6.40;99.90
15095;DHT22;7648;52.264;9.632;2023-03-16T21:50:49;6.40;99.90
15095;DHT22;7648;52.264;9.632;2023-03-16T21:54:54;6.40;99.90
15095;DHT22;7648;52.264;9.632;2023-03-16T21:58:56;6.40;99.90
15095;DHT22;7648;52.264;9.632;2023-03-16T22:02:58;6.40;99.90
15095;DHT22;7648;52.264;9.632;2023-03-16T22:07:00;6.30;99.90
15095;DHT22;7648;52.264;9.632;2023-03-16T22:11:09;6.30;99.90
15095;DHT22;7648;52.264;9.632;2023-03-16T22:15:15;6.30;99.90
15095;DHT22;7648;52.264;9.632;2023-03-16T22:19:17;6.40;99.90
15095;DHT22;7648;52.264;9.632;2023-03-16T22:23:27;6.30;99.90
15095;DHT22;7648;52.264;9.632;2023-03-16T22:27:30;6.40;99.90
15095;DHT22;7648;52.264;9.632;2023-03-16T22:31:34;6.40;99.90
15095;DHT22;7648;52.264;9.632;2023-03-16T22:35:38;6.40;99.90
15095;DHT22;7648;52.264;9.632;2023-03-16T22:39:40;6.30;99.90
15095;DHT22;7648;52.264;9.632;2023-03-16T22:43:44;6.30;99.90
15095;DHT22;7648;52.264;9.632;2023-03-16T22:47:46;6.30;99.90
15095;DHT22;7648;52.264;9.632;2023-03-16T22:51:49;6.20;99.90
15095;DHT22;7648;52.264;9.632;2023-03-16T22:55:53;6.20;99.90
15095;DHT22;7648;52.264;9.632;2023-03-16T22:59:58;6.10;99.90
15095;DHT22;7648;52.264;9.632;2023-03-16T23:04:12;6.10;99.90
15095;DHT22;7648;52.264;9.632;2023-03-16T23:08:16;6.10;99.90
15095;DHT22;7648;52.264;9.632;2023-03-16T23:12:19;6.10;99.90
15095;DHT22;7648;52.264;9.632;2023-03-16T23:16:25;6.10;99.90
15095;DHT22;7648;52.264;9.632;2023-03-16T23:20:31;6.10;99.90
15095;DHT22;7648;52.264;9.632;2023-03-16T23:24:33;6.20;99.90
15095;DHT22;7648;52.264;9.632;2023-03-16T23:28:36;6.10;99.90
15095;DHT22;7648;52.264;9.632;2023-03-16T23:32:39;6.20;99.90
15095;DHT22;7648;52.264;9.632;2023-03-16T23:36:41;6.20;99.90
15095;DHT22;7648;52.264;9.632;2023-03-16T23:40:43;6.30;99.90
15095;DHT22;7648;52.264;9.632;2023-03-16T23:44:46;6.30;99.90
15095;DHT22;7648;52.264;9.632;2023-03-16T23:48:50;6.40;99.90
15095;DHT22;7648;52.264;9.632;2023-03-16T23:52:54;6.40;99.90
15095;DHT22;7648;52.264;9.632;2023-03-16T23:56:56;6.50;99.90
